sensor_id;sensor_type;location;lat;lon;timestamp;P1;durP1;ratioP1;P2;durP2;ratioP2
75220;SDS011;63802;53.232;6.570;2023-03-23T00:02:27;10.00;;;4.15;;
75220;SDS011;63802;53.232;6.570;2023-03-23T00:04:53;13.52;;;5.15;;
75220;SDS011;63802;53.232;6.570;2023-03-23T00:07:23;16.35;;;6.65;;
75220;SDS011;63802;53.232;6.570;2023-03-23T00:09:52;15.52;;;7.03;;
75220;SDS011;63802;53.232;6.570;2023-03-23T00:12:25;15.38;;;6.57;;
75220;SDS011;63802;53.232;6.570;2023-03-23T00:15:03;20.58;;;7.65;;
75220;SDS011;63802;53.232;6.570;2023-03-23T00:17:29;19.55;;;7.85;;
75220;SDS011;63802;53.232;6.570;2023-03-23T00:19:58;20.80;;;8.20;;
75220;SDS011;63802;53.232;6.570;2023-03-23T00:22:26;14.05;;;5.65;;
75220;SDS011;63802;53.232;6.570;2023-03-23T00:24:52;10.38;;;5.13;;
75220;SDS011;63802;53.232;6.570;2023-03-23T00:27:19;11.88;;;5.05;;
75220;SDS011;63802;53.232;6.570;2023-03-23T00:29:46;12.35;;;5.20;;
75220;SDS011;63802;53.232;6.570;2023-03-23T00:32:17;10.20;;;4.57;;
75220;SDS011;63802;53.232;6.570;2023-03-23T00:34:45;10.30;;;4.35;;
75220;SDS011;63802;53.232;6.570;2023-03-23T00:37:13;10.75;;;5.20;;
75220;SDS011;63802;53.232;6.570;2023-03-23T00:39:41;10.27;;;4.72;;
75220;SDS011;63802;53.232;6.570;2023-03-23T00:42:10;13.40;;;5.50;;
75220;SDS011;63802;53.232;6.570;2023-03-23T00:44:37;11.93;;;5.88;;
75220;SDS011;63802;53.232;6.570;2023-03-23T00:47:04;13.82;;;6.32;;
75220;SDS011;63802;53.232;6.570;2023-03-23T00:49:32;15.68;;;6.95;;
75220;SDS011;63802;53.232;6.570;2023-03-23T00:51:59;18.17;;;7.72;;
75220;SDS011;63802;53.232;6.570;2023-03-23T00:54:25;21.88;;;9.43;;
75220;SDS011;63802;53.232;6.570;2023-03-23T00:56:51;21.83;;;9.95;;
75220;SDS011;63802;53.232;6.570;2023-03-23T00:59:20;23.02;;;10.65;;
75220;SDS011;63802;53.232;6.570;2023-03-23T01:01:47;23.27;;;12.00;;
75220;SDS011;63802;53.232;6.570;2023-03-23T01:04:13;30.63;;;12.52;;
75220;SDS011;63802;53.232;6.570;2023-03-23T01:06:40;37.55;;;14.63;;
75220;SDS011;63802;53.232;6.570;2023-03-23T01:09:07;23.27;;;10.63;;
75220;SDS011;63802;53.232;6.570;2023-03-23T01:11:35;20.30;;;9.15;;
75220;SDS011;63802;53.232;6.570;2023-03-23T01:14:02;15.98;;;7.35;;
75220;SDS011;63802;53.232;6.570;2023-03-23T01:16:28;9.98;;;5.22;;
75220;SDS011;63802;53.232;6.570;2023-03-23T01:18:53;9.68;;;4.47;;
75220;SDS011;63802;53.232;6.570;2023-03-23T01:21:19;11.30;;;4.20;;
75220;SDS011;63802;53.232;6.570;2023-03-23T01:23:45;9.55;;;4.05;;
75220;SDS011;63802;53.232;6.570;2023-03-23T01:26:13;7.93;;;3.00;;
75220;SDS011;63802;53.232;6.570;2023-03-23T01:28:40;7.38;;;3.15;;
75220;SDS011;63802;53.232;6.570;2023-03-23T01:31:07;6.78;;;3.22;;
75220;SDS011;63802;53.232;6.570;2023-03-23T01:33:37;7.88;;;4.10;;
75220;SDS011;63802;53.232;6.570;2023-03-23T01:36:03;8.98;;;3.95;;
75220;SDS011;63802;53.232;6.570;2023-03-23T01:38:31;10.02;;;4.50;;
75220;SDS011;63802;53.232;6.570;2023-03-23T01:40:57;15.23;;;5.55;;
75220;SDS011;63802;53.232;6.570;2023-03-23T01:43:23;13.60;;;6.60;;
75220;SDS011;63802;53.232;6.570;2023-03-23T01:45:48;16.88;;;7.22;;
75220;SDS011;63802;53.232;6.570;2023-03-23T01:48:22;13.13;;;6.57;;
75220;SDS011;63802;53.232;6.570;2023-03-23T01:53:20;14.65;;;7.45;;
75220;SDS011;63802;53.232;6.570;2023-03-23T01:55:47;12.57;;;7.63;;
75220;SDS011;63802;53.232;6.570;2023-03-23T01:58:17;12.18;;;7.13;;
75220;SDS011;63802;53.232;6.570;2023-03-23T02:03:12;15.52;;;6.47;;
75220;SDS011;63802;53.232;6.570;2023-03-23T02:05:41;17.38;;;7.70;;
75220;SDS011;63802;53.232;6.570;2023-03-23T02:08:07;17.70;;;7.78;;
75220;SDS011;63802;53.232;6.570;2023-03-23T02:10:34;16.02;;;7.45;;
75220;SDS011;63802;53.232;6.570;2023-03-23T02:13:02;13.38;;;6.90;;
75220;SDS011;63802;53.232;6.570;2023-03-23T02:15:41;18.10;;;6.80;;
75220;SDS011;63802;53.232;6.570;2023-03-23T02:18:10;12.15;;;6.57;;
75220;SDS011;63802;53.232;6.570;2023-03-23T02:20:49;12.30;;;5.80;;
75220;SDS011;63802;53.232;6.570;2023-03-23T02:26:26;11.90;;;6.00;;
75220;SDS011;63802;53.232;6.570;2023-03-23T02:34:38;13.35;;;5.43;;
75220;SDS011;63802;53.232;6.570;2023-03-23T02:37:28;11.05;;;5.65;;
75220;SDS011;63802;53.232;6.570;2023-03-23T02:40:08;12.50;;;5.97;;
75220;SDS011;63802;53.232;6.570;2023-03-23T02:42:38;15.20;;;6.03;;
75220;SDS011;63802;53.232;6.570;2023-03-23T02:47:35;12.43;;;5.53;;
75220;SDS011;63802;53.232;6.570;2023-03-23T02:50:04;15.30;;;5.43;;
75220;SDS011;63802;53.232;6.570;2023-03-23T02:52:32;11.15;;;5.35;;
75220;SDS011;63802;53.232;6.570;2023-03-23T02:55:01;8.48;;;5.10;;
75220;SDS011;63802;53.232;6.570;2023-03-23T02:57:29;13.85;;;4.65;;
75220;SDS011;63802;53.232;6.570;2023-03-23T02:59:56;9.40;;;4.60;;
75220;SDS011;63802;53.232;6.570;2023-03-23T03:02:29;10.77;;;4.82;;
75220;SDS011;63802;53.232;6.570;2023-03-23T03:11:08;9.25;;;4.40;;
75220;SDS011;63802;53.232;6.570;2023-03-23T03:13:50;10.15;;;4.47;;
75220;SDS011;63802;53.232;6.570;2023-03-23T03:16:31;16.15;;;4.68;;
75220;SDS011;63802;53.232;6.570;2023-03-23T03:19:08;11.60;;;4.32;;
75220;SDS011;63802;53.232;6.570;2023-03-23T03:21:43;10.85;;;4.35;;
75220;SDS011;63802;53.232;6.570;2023-03-23T03:24:13;7.97;;;4.32;;
75220;SDS011;63802;53.232;6.570;2023-03-23T03:26:42;12.20;;;4.35;;
75220;SDS011;63802;53.232;6.570;2023-03-23T03:29:12;8.40;;;4.13;;
75220;SDS011;63802;53.232;6.570;2023-03-23T03:34:15;9.85;;;4.40;;
75220;SDS011;63802;53.232;6.570;2023-03-23T03:36:42;10.25;;;3.80;;
75220;SDS011;63802;53.232;6.570;2023-03-23T03:39:10;9.00;;;4.20;;
75220;SDS011;63802;53.232;6.570;2023-03-23T03:41:38;9.43;;;4.07;;
75220;SDS011;63802;53.232;6.570;2023-03-23T03:44:04;11.95;;;4.35;;
75220;SDS011;63802;53.232;6.570;2023-03-23T03:46:31;10.73;;;4.60;;
75220;SDS011;63802;53.232;6.570;2023-03-23T03:48:58;9.63;;;4.15;;
75220;SDS011;63802;53.232;6.570;2023-03-23T03:51:25;13.88;;;4.30;;
75220;SDS011;63802;53.232;6.570;2023-03-23T03:53:52;9.30;;;4.00;;
75220;SDS011;63802;53.232;6.570;2023-03-23T03:56:19;8.80;;;3.63;;
75220;SDS011;63802;53.232;6.570;2023-03-23T03:58:45;11.23;;;4.40;;
75220;SDS011;63802;53.232;6.570;2023-03-23T04:01:13;11.05;;;4.30;;
75220;SDS011;63802;53.232;6.570;2023-03-23T04:03:40;9.68;;;3.92;;
75220;SDS011;63802;53.232;6.570;2023-03-23T04:06:06;6.45;;;3.35;;
75220;SDS011;63802;53.232;6.570;2023-03-23T04:08:33;11.23;;;4.40;;
75220;SDS011;63802;53.232;6.570;2023-03-23T04:11:00;10.88;;;4.22;;
75220;SDS011;63802;53.232;6.570;2023-03-23T04:13:26;10.93;;;3.92;;
75220;SDS011;63802;53.232;6.570;2023-03-23T04:15:51;8.15;;;3.58;;
75220;SDS011;63802;53.232;6.570;2023-03-23T04:18:18;8.60;;;3.08;;
75220;SDS011;63802;53.232;6.570;2023-03-23T04:20:44;5.43;;;3.15;;
75220;SDS011;63802;53.232;6.570;2023-03-23T04:23:14;5.85;;;2.80;;
75220;SDS011;63802;53.232;6.570;2023-03-23T04:25:48;4.93;;;2.00;;
75220;SDS011;63802;53.232;6.570;2023-03-23T04:28:16;3.47;;;1.88;;
75220;SDS011;63802;53.232;6.570;2023-03-23T04:30:43;6.93;;;2.50;;
75220;SDS011;63802;53.232;6.570;2023-03-23T04:33:14;5.97;;;2.20;;
75220;SDS011;63802;53.232;6.570;2023-03-23T04:35:41;6.03;;;2.50;;
75220;SDS011;63802;53.232;6.570;2023-03-23T04:38:07;7.70;;;2.47;;
75220;SDS011;63802;53.232;6.570;2023-03-23T04:40:36;4.68;;;2.47;;
75220;SDS011;63802;53.232;6.570;2023-03-23T04:43:03;4.45;;;2.28;;
75220;SDS011;63802;53.232;6.570;2023-03-23T04:45:30;6.05;;;2.28;;
75220;SDS011;63802;53.232;6.570;2023-03-23T04:47:57;4.82;;;2.45;;
75220;SDS011;63802;53.232;6.570;2023-03-23T04:50:23;5.82;;;2.40;;
75220;SDS011;63802;53.232;6.570;2023-03-23T04:52:51;6.00;;;2.40;;
75220;SDS011;63802;53.232;6.570;2023-03-23T04:55:18;5.70;;;2.30;;
75220;SDS011;63802;53.232;6.570;2023-03-23T04:57:45;6.05;;;2.30;;
75220;SDS011;63802;53.232;6.570;2023-03-23T05:00:11;4.60;;;2.30;;
75220;SDS011;63802;53.232;6.570;2023-03-23T05:02:39;7.20;;;2.28;;
75220;SDS011;63802;53.232;6.570;2023-03-23T05:05:06;8.75;;;2.20;;
75220;SDS011;63802;53.232;6.570;2023-03-23T05:07:32;9.13;;;2.22;;
75220;SDS011;63802;53.232;6.570;2023-03-23T05:09:58;9.55;;;2.20;;
75220;SDS011;63802;53.232;6.570;2023-03-23T05:12:24;6.65;;;2.33;;
75220;SDS011;63802;53.232;6.570;2023-03-23T05:14:49;6.00;;;1.98;;
75220;SDS011;63802;53.232;6.570;2023-03-23T05:17:15;4.53;;;1.90;;
75220;SDS011;63802;53.232;6.570;2023-03-23T05:19:45;10.77;;;2.40;;
75220;SDS011;63802;53.232;6.570;2023-03-23T05:22:14;8.15;;;2.88;;
75220;SDS011;63802;53.232;6.570;2023-03-23T05:24:40;5.45;;;2.75;;
75220;SDS011;63802;53.232;6.570;2023-03-23T05:27:05;12.25;;;3.20;;
75220;SDS011;63802;53.232;6.570;2023-03-23T05:29:33;14.25;;;3.13;;
75220;SDS011;63802;53.232;6.570;2023-03-23T05:32:00;8.98;;;4.07;;
75220;SDS011;63802;53.232;6.570;2023-03-23T05:34:27;10.77;;;3.67;;
75220;SDS011;63802;53.232;6.570;2023-03-23T05:36:54;12.90;;;3.50;;
75220;SDS011;63802;53.232;6.570;2023-03-23T05:39:22;9.90;;;3.67;;
75220;SDS011;63802;53.232;6.570;2023-03-23T05:41:48;11.88;;;3.33;;
75220;SDS011;63802;53.232;6.570;2023-03-23T05:44:13;12.57;;;3.75;;
75220;SDS011;63802;53.232;6.570;2023-03-23T05:46:39;6.68;;;2.80;;
75220;SDS011;63802;53.232;6.570;2023-03-23T05:49:08;12.07;;;2.90;;
75220;SDS011;63802;53.232;6.570;2023-03-23T05:51:34;11.00;;;3.25;;
75220;SDS011;63802;53.232;6.570;2023-03-23T05:54:00;14.77;;;3.25;;
75220;SDS011;63802;53.232;6.570;2023-03-23T05:56:25;13.52;;;2.47;;
75220;SDS011;63802;53.232;6.570;2023-03-23T05:58:51;17.48;;;3.10;;
75220;SDS011;63802;53.232;6.570;2023-03-23T06:01:17;18.75;;;3.05;;
75220;SDS011;63802;53.232;6.570;2023-03-23T06:03:43;18.15;;;3.20;;
75220;SDS011;63802;53.232;6.570;2023-03-23T06:06:12;10.88;;;2.83;;
75220;SDS011;63802;53.232;6.570;2023-03-23T06:08:38;13.63;;;2.63;;
75220;SDS011;63802;53.232;6.570;2023-03-23T06:11:04;15.70;;;2.90;;
75220;SDS011;63802;53.232;6.570;2023-03-23T06:13:29;15.05;;;2.90;;
75220;SDS011;63802;53.232;6.570;2023-03-23T06:15:56;18.38;;;3.58;;
75220;SDS011;63802;53.232;6.570;2023-03-23T06:18:24;18.98;;;2.70;;
75220;SDS011;63802;53.232;6.570;2023-03-23T06:20:51;12.95;;;2.65;;
75220;SDS011;63802;53.232;6.570;2023-03-23T06:23:17;13.35;;;2.88;;
75220;SDS011;63802;53.232;6.570;2023-03-23T06:25:43;13.32;;;3.50;;
75220;SDS011;63802;53.232;6.570;2023-03-23T06:28:10;15.82;;;2.45;;
75220;SDS011;63802;53.232;6.570;2023-03-23T06:30:36;14.80;;;2.90;;
75220;SDS011;63802;53.232;6.570;2023-03-23T06:33:02;18.05;;;3.28;;
75220;SDS011;63802;53.232;6.570;2023-03-23T06:35:30;15.75;;;3.28;;
75220;SDS011;63802;53.232;6.570;2023-03-23T06:37:57;16.23;;;2.85;;
75220;SDS011;63802;53.232;6.570;2023-03-23T06:40:26;13.30;;;2.70;;
75220;SDS011;63802;53.232;6.570;2023-03-23T06:42:53;15.60;;;2.55;;
75220;SDS011;63802;53.232;6.570;2023-03-23T06:45:19;14.80;;;2.30;;
75220;SDS011;63802;53.232;6.570;2023-03-23T06:47:45;11.38;;;2.28;;
75220;SDS011;63802;53.232;6.570;2023-03-23T06:50:14;15.07;;;2.20;;
75220;SDS011;63802;53.232;6.570;2023-03-23T06:52:40;9.60;;;2.38;;
75220;SDS011;63802;53.232;6.570;2023-03-23T06:55:06;7.20;;;1.58;;
75220;SDS011;63802;53.232;6.570;2023-03-23T06:57:33;12.98;;;3.28;;
75220;SDS011;63802;53.232;6.570;2023-03-23T06:59:58;11.68;;;3.75;;
75220;SDS011;63802;53.232;6.570;2023-03-23T07:02:24;5.90;;;1.75;;
75220;SDS011;63802;53.232;6.570;2023-03-23T07:04:51;11.88;;;1.90;;
75220;SDS011;63802;53.232;6.570;2023-03-23T07:07:16;9.60;;;1.88;;
75220;SDS011;63802;53.232;6.570;2023-03-23T07:09:43;7.07;;;1.63;;
75220;SDS011;63802;53.232;6.570;2023-03-23T07:12:10;6.35;;;1.42;;
75220;SDS011;63802;53.232;6.570;2023-03-23T07:14:35;7.05;;;1.88;;
75220;SDS011;63802;53.232;6.570;2023-03-23T07:17:02;8.27;;;1.90;;
75220;SDS011;63802;53.232;6.570;2023-03-23T07:19:28;7.85;;;1.75;;
75220;SDS011;63802;53.232;6.570;2023-03-23T07:21:54;5.45;;;1.92;;
75220;SDS011;63802;53.232;6.570;2023-03-23T07:24:19;9.95;;;2.05;;
75220;SDS011;63802;53.232;6.570;2023-03-23T07:26:45;15.43;;;2.78;;
75220;SDS011;63802;53.232;6.570;2023-03-23T07:29:11;9.88;;;2.13;;
75220;SDS011;63802;53.232;6.570;2023-03-23T07:31:36;19.67;;;3.08;;
75220;SDS011;63802;53.232;6.570;2023-03-23T07:34:02;16.85;;;2.95;;
75220;SDS011;63802;53.232;6.570;2023-03-23T07:36:28;12.75;;;3.20;;
75220;SDS011;63802;53.232;6.570;2023-03-23T07:38:54;12.32;;;2.85;;
75220;SDS011;63802;53.232;6.570;2023-03-23T07:41:20;19.40;;;2.75;;
75220;SDS011;63802;53.232;6.570;2023-03-23T07:43:45;23.48;;;3.58;;
75220;SDS011;63802;53.232;6.570;2023-03-23T07:46:12;17.80;;;3.45;;
75220;SDS011;63802;53.232;6.570;2023-03-23T07:48:38;18.85;;;3.20;;
75220;SDS011;63802;53.232;6.570;2023-03-23T07:51:04;22.30;;;3.40;;
75220;SDS011;63802;53.232;6.570;2023-03-23T07:53:32;16.58;;;3.03;;
75220;SDS011;63802;53.232;6.570;2023-03-23T07:55:59;13.20;;;2.92;;
75220;SDS011;63802;53.232;6.570;2023-03-23T07:58:25;20.17;;;3.97;;
75220;SDS011;63802;53.232;6.570;2023-03-23T08:00:53;19.63;;;3.63;;
75220;SDS011;63802;53.232;6.570;2023-03-23T08:03:20;17.45;;;3.15;;
75220;SDS011;63802;53.232;6.570;2023-03-23T08:05:45;18.35;;;3.90;;
75220;SDS011;63802;53.232;6.570;2023-03-23T08:08:10;19.83;;;3.42;;
75220;SDS011;63802;53.232;6.570;2023-03-23T08:10:37;18.23;;;3.25;;
75220;SDS011;63802;53.232;6.570;2023-03-23T08:13:03;20.40;;;3.05;;
75220;SDS011;63802;53.232;6.570;2023-03-23T08:15:29;22.45;;;3.25;;
75220;SDS011;63802;53.232;6.570;2023-03-23T08:17:54;18.33;;;3.00;;
75220;SDS011;63802;53.232;6.570;2023-03-23T08:20:20;19.30;;;2.92;;
75220;SDS011;63802;53.232;6.570;2023-03-23T08:22:53;20.48;;;3.25;;
75220;SDS011;63802;53.232;6.570;2023-03-23T08:25:21;16.27;;;2.75;;
75220;SDS011;63802;53.232;6.570;2023-03-23T08:27:51;17.52;;;3.47;;
75220;SDS011;63802;53.232;6.570;2023-03-23T08:30:19;25.08;;;3.38;;
75220;SDS011;63802;53.232;6.570;2023-03-23T08:32:47;19.50;;;2.70;;
75220;SDS011;63802;53.232;6.570;2023-03-23T08:35:15;19.50;;;2.67;;
75220;SDS011;63802;53.232;6.570;2023-03-23T08:37:41;19.48;;;3.65;;
75220;SDS011;63802;53.232;6.570;2023-03-23T08:40:08;22.88;;;3.20;;
75220;SDS011;63802;53.232;6.570;2023-03-23T08:42:36;15.60;;;3.45;;
75220;SDS011;63802;53.232;6.570;2023-03-23T08:45:05;22.25;;;3.60;;
75220;SDS011;63802;53.232;6.570;2023-03-23T08:47:33;19.70;;;3.13;;
75220;SDS011;63802;53.232;6.570;2023-03-23T08:50:00;14.25;;;3.33;;
75220;SDS011;63802;53.232;6.570;2023-03-23T08:52:29;21.52;;;4.18;;
75220;SDS011;63802;53.232;6.570;2023-03-23T08:54:58;18.95;;;3.28;;
75220;SDS011;63802;53.232;6.570;2023-03-23T08:57:24;17.27;;;3.58;;
75220;SDS011;63802;53.232;6.570;2023-03-23T08:59:51;19.67;;;2.95;;
75220;SDS011;63802;53.232;6.570;2023-03-23T09:02:19;23.05;;;3.38;;
75220;SDS011;63802;53.232;6.570;2023-03-23T09:04:45;20.60;;;3.35;;
75220;SDS011;63802;53.232;6.570;2023-03-23T09:07:11;15.60;;;2.67;;
75220;SDS011;63802;53.232;6.570;2023-03-23T09:09:39;17.70;;;3.17;;
75220;SDS011;63802;53.232;6.570;2023-03-23T09:12:06;15.10;;;3.35;;
75220;SDS011;63802;53.232;6.570;2023-03-23T09:14:32;20.10;;;3.30;;
75220;SDS011;63802;53.232;6.570;2023-03-23T09:16:57;20.60;;;3.22;;
75220;SDS011;63802;53.232;6.570;2023-03-23T09:19:23;19.58;;;3.35;;
75220;SDS011;63802;53.232;6.570;2023-03-23T09:21:48;21.17;;;3.95;;
75220;SDS011;63802;53.232;6.570;2023-03-23T09:24:15;29.25;;;3.47;;
75220;SDS011;63802;53.232;6.570;2023-03-23T09:26:41;23.35;;;3.53;;
75220;SDS011;63802;53.232;6.570;2023-03-23T09:29:06;16.17;;;3.28;;
75220;SDS011;63802;53.232;6.570;2023-03-23T09:31:33;20.33;;;2.83;;
75220;SDS011;63802;53.232;6.570;2023-03-23T09:34:02;21.88;;;3.28;;
75220;SDS011;63802;53.232;6.570;2023-03-23T09:36:29;19.30;;;3.28;;
75220;SDS011;63802;53.232;6.570;2023-03-23T09:38:55;26.20;;;3.20;;
75220;SDS011;63802;53.232;6.570;2023-03-23T09:50:09;14.88;;;3.10;;
75220;SDS011;63802;53.232;6.570;2023-03-23T09:52:45;14.57;;;2.65;;
75220;SDS011;63802;53.232;6.570;2023-03-23T09:55:16;18.80;;;3.10;;
75220;SDS011;63802;53.232;6.570;2023-03-23T10:00:46;18.42;;;3.65;;
75220;SDS011;63802;53.232;6.570;2023-03-23T10:03:28;15.90;;;3.08;;
75220;SDS011;63802;53.232;6.570;2023-03-23T10:06:00;14.82;;;2.58;;
75220;SDS011;63802;53.232;6.570;2023-03-23T10:08:30;17.63;;;3.25;;
75220;SDS011;63802;53.232;6.570;2023-03-23T10:11:04;21.63;;;3.15;;
75220;SDS011;63802;53.232;6.570;2023-03-23T10:19:53;10.98;;;2.95;;
75220;SDS011;63802;53.232;6.570;2023-03-23T10:22:33;15.80;;;3.17;;
75220;SDS011;63802;53.232;6.570;2023-03-23T10:30:51;13.68;;;2.75;;
75220;SDS011;63802;53.232;6.570;2023-03-23T10:33:25;14.30;;;2.45;;
75220;SDS011;63802;53.232;6.570;2023-03-23T10:36:06;17.38;;;2.30;;
75220;SDS011;63802;53.232;6.570;2023-03-23T10:41:37;16.92;;;2.42;;
75220;SDS011;63802;53.232;6.570;2023-03-23T10:45:08;11.63;;;2.53;;
75220;SDS011;63802;53.232;6.570;2023-03-23T10:47:18;12.70;;;3.30;;
75220;SDS011;63802;53.232;6.570;2023-03-23T10:49:48;11.93;;;2.67;;
75220;SDS011;63802;53.232;6.570;2023-03-23T10:55:12;21.83;;;3.55;;
75220;SDS011;63802;53.232;6.570;2023-03-23T11:00:42;10.90;;;2.40;;
75220;SDS011;63802;53.232;6.570;2023-03-23T11:08:28;11.75;;;2.70;;
75220;SDS011;63802;53.232;6.570;2023-03-23T11:17:37;15.00;;;2.90;;
75220;SDS011;63802;53.232;6.570;2023-03-23T11:20:18;13.43;;;2.67;;
75220;SDS011;63802;53.232;6.570;2023-03-23T11:22:51;14.05;;;3.00;;
75220;SDS011;63802;53.232;6.570;2023-03-23T11:25:29;12.07;;;2.42;;
75220;SDS011;63802;53.232;6.570;2023-03-23T11:28:43;17.25;;;2.80;;
75220;SDS011;63802;53.232;6.570;2023-03-23T11:31:42;18.30;;;3.55;;
75220;SDS011;63802;53.232;6.570;2023-03-23T11:34:40;15.90;;;2.67;;
75220;SDS011;63802;53.232;6.570;2023-03-23T11:45:40;16.95;;;2.20;;
75220;SDS011;63802;53.232;6.570;2023-03-23T11:51:13;7.32;;;2.03;;
75220;SDS011;63802;53.232;6.570;2023-03-23T11:56:52;10.63;;;1.90;;
75220;SDS011;63802;53.232;6.570;2023-03-23T12:13:06;12.15;;;2.15;;
75220;SDS011;63802;53.232;6.570;2023-03-23T12:27:34;12.20;;;2.10;;
75220;SDS011;63802;53.232;6.570;2023-03-23T12:38:22;6.35;;;2.05;;
75220;SDS011;63802;53.232;6.570;2023-03-23T12:41:14;11.63;;;2.30;;
75220;SDS011;63802;53.232;6.570;2023-03-23T12:49:08;10.02;;;2.28;;
75220;SDS011;63802;53.232;6.570;2023-03-23T12:57:29;9.73;;;1.85;;
75220;SDS011;63802;53.232;6.570;2023-03-23T13:06:03;8.38;;;1.92;;
75220;SDS011;63802;53.232;6.570;2023-03-23T13:08:35;8.68;;;2.20;;
75220;SDS011;63802;53.232;6.570;2023-03-23T13:11:22;12.57;;;2.20;;
75220;SDS011;63802;53.232;6.570;2023-03-23T13:20:23;12.95;;;2.10;;
75220;SDS011;63802;53.232;6.570;2023-03-23T13:29:01;10.57;;;1.70;;
75220;SDS011;63802;53.232;6.570;2023-03-23T13:31:45;15.15;;;2.60;;
75220;SDS011;63802;53.232;6.570;2023-03-23T13:37:04;11.07;;;2.42;;
75220;SDS011;63802;53.232;6.570;2023-03-23T13:39:52;12.38;;;2.38;;
75220;SDS011;63802;53.232;6.570;2023-03-23T13:42:25;12.25;;;2.72;;
75220;SDS011;63802;53.232;6.570;2023-03-23T13:48:18;17.02;;;2.70;;
75220;SDS011;63802;53.232;6.570;2023-03-23T13:53:22;11.23;;;2.25;;
75220;SDS011;63802;53.232;6.570;2023-03-23T13:55:51;12.85;;;1.98;;
75220;SDS011;63802;53.232;6.570;2023-03-23T13:58:49;14.30;;;2.13;;
75220;SDS011;63802;53.232;6.570;2023-03-23T14:01:40;11.95;;;2.25;;
75220;SDS011;63802;53.232;6.570;2023-03-23T14:04:10;12.15;;;2.53;;
75220;SDS011;63802;53.232;6.570;2023-03-23T14:06:40;14.55;;;2.10;;
75220;SDS011;63802;53.232;6.570;2023-03-23T14:11:48;12.13;;;2.95;;
75220;SDS011;63802;53.232;6.570;2023-03-23T14:14:38;12.38;;;2.50;;
75220;SDS011;63802;53.232;6.570;2023-03-23T14:19:47;13.93;;;2.63;;
75220;SDS011;63802;53.232;6.570;2023-03-23T14:25:29;14.32;;;2.47;;
75220;SDS011;63802;53.232;6.570;2023-03-23T14:27:57;14.07;;;2.20;;
75220;SDS011;63802;53.232;6.570;2023-03-23T14:30:36;12.65;;;2.08;;
75220;SDS011;63802;53.232;6.570;2023-03-23T14:33:03;12.68;;;2.65;;
75220;SDS011;63802;53.232;6.570;2023-03-23T14:35:35;10.10;;;2.08;;
75220;SDS011;63802;53.232;6.570;2023-03-23T14:38:20;12.68;;;2.45;;
75220;SDS011;63802;53.232;6.570;2023-03-23T14:40:51;12.23;;;2.40;;
75220;SDS011;63802;53.232;6.570;2023-03-23T14:43:19;8.77;;;2.45;;
75220;SDS011;63802;53.232;6.570;2023-03-23T14:45:54;10.38;;;2.30;;
75220;SDS011;63802;53.232;6.570;2023-03-23T14:48:26;10.25;;;1.77;;
75220;SDS011;63802;53.232;6.570;2023-03-23T14:53:32;9.18;;;1.90;;
75220;SDS011;63802;53.232;6.570;2023-03-23T14:56:12;16.40;;;2.03;;
75220;SDS011;63802;53.232;6.570;2023-03-23T14:59:02;9.35;;;1.77;;
75220;SDS011;63802;53.232;6.570;2023-03-23T15:01:31;5.70;;;1.73;;
75220;SDS011;63802;53.232;6.570;2023-03-23T15:04:04;9.52;;;2.05;;
75220;SDS011;63802;53.232;6.570;2023-03-23T15:06:47;9.20;;;2.28;;
75220;SDS011;63802;53.232;6.570;2023-03-23T15:09:19;12.40;;;2.20;;
75220;SDS011;63802;53.232;6.570;2023-03-23T15:11:52;13.50;;;2.20;;
75220;SDS011;63802;53.232;6.570;2023-03-23T15:14:19;8.55;;;2.33;;
75220;SDS011;63802;53.232;6.570;2023-03-23T15:16:48;6.72;;;2.05;;
75220;SDS011;63802;53.232;6.570;2023-03-23T15:19:18;11.23;;;2.10;;
75220;SDS011;63802;53.232;6.570;2023-03-23T15:22:30;7.40;;;1.92;;
75220;SDS011;63802;53.232;6.570;2023-03-23T15:25:10;7.70;;;1.90;;
75220;SDS011;63802;53.232;6.570;2023-03-23T15:27:44;12.15;;;1.75;;
75220;SDS011;63802;53.232;6.570;2023-03-23T15:33:02;6.80;;;1.35;;
75220;SDS011;63802;53.232;6.570;2023-03-23T15:35:55;13.85;;;1.95;;
75220;SDS011;63802;53.232;6.570;2023-03-23T15:38:33;11.90;;;1.88;;
75220;SDS011;63802;53.232;6.570;2023-03-23T15:41:19;8.32;;;1.80;;
75220;SDS011;63802;53.232;6.570;2023-03-23T15:43:53;6.82;;;1.27;;
75220;SDS011;63802;53.232;6.570;2023-03-23T15:46:25;4.55;;;1.65;;
75220;SDS011;63802;53.232;6.570;2023-03-23T15:51:38;6.38;;;1.90;;
75220;SDS011;63802;53.232;6.570;2023-03-23T15:54:07;9.20;;;1.63;;
75220;SDS011;63802;53.232;6.570;2023-03-23T15:56:42;8.10;;;1.83;;
75220;SDS011;63802;53.232;6.570;2023-03-23T15:59:11;10.07;;;1.67;;
75220;SDS011;63802;53.232;6.570;2023-03-23T16:01:38;9.43;;;1.85;;
75220;SDS011;63802;53.232;6.570;2023-03-23T16:04:13;12.38;;;2.85;;
75220;SDS011;63802;53.232;6.570;2023-03-23T16:06:41;10.10;;;2.92;;
75220;SDS011;63802;53.232;6.570;2023-03-23T16:09:11;11.48;;;1.80;;
75220;SDS011;63802;53.232;6.570;2023-03-23T16:11:39;14.40;;;2.00;;
75220;SDS011;63802;53.232;6.570;2023-03-23T16:14:06;11.05;;;2.40;;
75220;SDS011;63802;53.232;6.570;2023-03-23T16:16:38;12.52;;;1.85;;
75220;SDS011;63802;53.232;6.570;2023-03-23T16:19:13;10.00;;;1.80;;
75220;SDS011;63802;53.232;6.570;2023-03-23T16:21:42;14.00;;;2.80;;
75220;SDS011;63802;53.232;6.570;2023-03-23T16:24:08;14.20;;;2.40;;
75220;SDS011;63802;53.232;6.570;2023-03-23T16:26:35;14.55;;;1.98;;
75220;SDS011;63802;53.232;6.570;2023-03-23T16:29:01;13.80;;;2.92;;
75220;SDS011;63802;53.232;6.570;2023-03-23T16:31:33;11.77;;;2.15;;
75220;SDS011;63802;53.232;6.570;2023-03-23T16:34:02;13.32;;;2.72;;
75220;SDS011;63802;53.232;6.570;2023-03-23T16:36:31;13.10;;;2.20;;
75220;SDS011;63802;53.232;6.570;2023-03-23T16:38:57;11.50;;;2.85;;
75220;SDS011;63802;53.232;6.570;2023-03-23T16:41:22;12.18;;;2.63;;
75220;SDS011;63802;53.232;6.570;2023-03-23T16:43:48;16.00;;;2.35;;
75220;SDS011;63802;53.232;6.570;2023-03-23T16:46:13;15.35;;;2.75;;
75220;SDS011;63802;53.232;6.570;2023-03-23T16:48:39;10.82;;;2.45;;
75220;SDS011;63802;53.232;6.570;2023-03-23T16:51:04;11.45;;;2.10;;
75220;SDS011;63802;53.232;6.570;2023-03-23T16:53:30;13.18;;;2.40;;
75220;SDS011;63802;53.232;6.570;2023-03-23T16:55:56;10.00;;;2.45;;
75220;SDS011;63802;53.232;6.570;2023-03-23T16:58:22;13.43;;;2.55;;
75220;SDS011;63802;53.232;6.570;2023-03-23T17:00:49;11.90;;;2.10;;
75220;SDS011;63802;53.232;6.570;2023-03-23T17:03:19;15.38;;;2.65;;
75220;SDS011;63802;53.232;6.570;2023-03-23T17:05:46;14.52;;;3.00;;
75220;SDS011;63802;53.232;6.570;2023-03-23T17:08:13;11.70;;;2.63;;
75220;SDS011;63802;53.232;6.570;2023-03-23T17:10:39;13.77;;;2.50;;
75220;SDS011;63802;53.232;6.570;2023-03-23T17:13:06;8.38;;;3.17;;
75220;SDS011;63802;53.232;6.570;2023-03-23T17:15:34;16.75;;;2.45;;
75220;SDS011;63802;53.232;6.570;2023-03-23T17:18:00;12.27;;;2.60;;
75220;SDS011;63802;53.232;6.570;2023-03-23T17:20:26;16.23;;;2.42;;
75220;SDS011;63802;53.232;6.570;2023-03-23T17:22:52;11.85;;;1.98;;
75220;SDS011;63802;53.232;6.570;2023-03-23T17:25:18;13.75;;;2.70;;
75220;SDS011;63802;53.232;6.570;2023-03-23T17:27:43;11.13;;;2.60;;
75220;SDS011;63802;53.232;6.570;2023-03-23T17:30:09;15.38;;;3.10;;
75220;SDS011;63802;53.232;6.570;2023-03-23T17:32:35;10.60;;;2.33;;
75220;SDS011;63802;53.232;6.570;2023-03-23T17:35:02;12.45;;;2.58;;
75220;SDS011;63802;53.232;6.570;2023-03-23T17:37:29;16.05;;;3.33;;
75220;SDS011;63802;53.232;6.570;2023-03-23T17:39:55;16.10;;;2.67;;
75220;SDS011;63802;53.232;6.570;2023-03-23T17:42:20;9.05;;;2.33;;
75220;SDS011;63802;53.232;6.570;2023-03-23T17:44:46;17.85;;;2.92;;
75220;SDS011;63802;53.232;6.570;2023-03-23T17:47:12;13.57;;;3.30;;